Time;durP1;ratioP1;P1;durP2;ratioP2;P2;SDS_P1;SDS_P2;PMS_P1;PMS_P2;Temp;Humidity;BMP_temperature;BMP_pressure;BME280_temperature;BME280_humidity;BME280_pressure;Samples;Min_cycle;Max_cycle;Signal;HPM_P1;HPM_P2
2023/06/24 00:00:27;;;;;;;;;;;27.10;46.10;;;;;;5042283;28;19909;-67
2023/06/24 00:02:53;;;;;;;;;;;27.10;46.10;;;;;;5040995;28;20356;-66
2023/06/24 00:05:19;;;;;;;;;;;27.10;46.10;;;;;;5036931;28;19905;-67
2023/06/24 00:07:45;;;;;;;;;;;27.00;46.00;;;;;;5038775;28;19912;-66
2023/06/24 00:10:12;;;;;;;;;;;27.10;46.10;;;;;;5038573;28;20317;-66
2023/06/24 00:12:38;;;;;;;;;;;27.00;46.00;;;;;;5040891;28;19992;-66
2023/06/24 00:15:05;;;;;;;;;;;27.10;46.10;;;;;;5042903;28;20301;-66
2023/06/24 00:17:30;;;;;;;;;;;27.00;46.00;;;;;;5040021;28;20357;-66
2023/06/24 00:19:56;;;;;;;;;;;27.10;46.10;;;;;;5039989;28;19913;-66
2023/06/24 00:22:22;;;;;;;;;;;27.10;46.10;;;;;;5040905;28;19905;-67
2023/06/24 00:24:47;;;;;;;;;;;27.00;46.00;;;;;;5038314;28;19962;-66
2023/06/24 00:27:13;;;;;;;;;;;27.00;46.10;;;;;;5040611;28;19908;-66
2023/06/24 00:29:38;;;;;;;;;;;27.00;46.10;;;;;;5038552;28;19905;-65
2023/06/24 00:32:04;;;;;;;;;;;27.00;46.10;;;;;;5038001;28;19909;-65
2023/06/24 00:34:30;;;;;;;;;;;27.10;46.20;;;;;;5041406;28;20411;-65
2023/06/24 00:36:55;;;;;;;;;;;27.00;46.10;;;;;;5040542;28;19909;-65
2023/06/24 00:39:21;;;;;;;;;;;27.00;46.10;;;;;;5040028;28;19920;-66
2023/06/24 00:41:46;;;;;;;;;;;27.00;46.10;;;;;;5040467;28;19931;-65
2023/06/24 00:44:12;;;;;;;;;;;27.00;46.10;;;;;;5038777;28;19909;-67
2023/06/24 00:46:39;;;;;;;;;;;27.00;46.10;;;;;;5040306;28;19905;-68
2023/06/24 00:49:05;;;;;;;;;;;27.00;46.10;;;;;;5042393;28;19909;-67
2023/06/24 00:51:32;;;;;;;;;;;27.00;46.10;;;;;;5038341;28;19909;-65
2023/06/24 00:53:58;;;;;;;;;;;27.00;46.10;;;;;;5037893;28;20283;-67
2023/06/24 00:56:34;;;;;;;;;;;27.00;46.10;;;;;;5040447;28;19909;-65
2023/06/24 00:59:02;;;;;;;;;;;27.00;46.10;;;;;;5039955;28;20356;-67
2023/06/24 01:01:28;;;;;;;;;;;27.00;46.10;;;;;;5043495;28;19909;-68
2023/06/24 01:03:53;;;;;;;;;;;27.00;46.20;;;;;;5041193;28;20312;-67
2023/06/24 01:06:19;;;;;;;;;;;27.00;46.10;;;;;;5039058;28;19905;-67
2023/06/24 01:08:53;;;;;;;;;;;27.00;46.20;;;;;;5036215;28;20008;-67
2023/06/24 01:11:19;;;;;;;;;;;27.00;46.20;;;;;;5039575;28;19913;-67
2023/06/24 01:13:44;;;;;;;;;;;27.00;46.20;;;;;;5040373;28;20007;-67
2023/06/24 01:16:13;;;;;;;;;;;27.00;46.20;;;;;;5041863;28;20209;-67
2023/06/24 01:18:40;;;;;;;;;;;27.00;46.20;;;;;;5039567;28;19916;-67
2023/06/24 01:21:09;;;;;;;;;;;27.00;46.20;;;;;;5039718;28;19978;-67
2023/06/24 01:23:53;;;;;;;;;;;26.90;46.10;;;;;;5037455;28;19909;-67
2023/06/24 01:26:42;;;;;;;;;;;27.00;46.20;;;;;;5039311;28;20321;-67
2023/06/24 01:29:44;;;;;;;;;;;27.00;46.20;;;;;;5042818;28;19904;-66
2023/06/24 01:32:11;;;;;;;;;;;27.00;46.20;;;;;;5018618;28;19966;-67
2023/06/24 01:34:40;;;;;;;;;;;26.90;46.20;;;;;;5037241;28;20058;-66
2023/06/24 01:37:17;;;;;;;;;;;26.90;46.20;;;;;;5041027;28;19955;-67
2023/06/24 01:39:47;;;;;;;;;;;26.90;46.10;;;;;;5038922;28;19916;-67
2023/06/24 01:42:14;;;;;;;;;;;26.90;46.20;;;;;;5038418;28;20616;-67
2023/06/24 01:44:41;;;;;;;;;;;26.90;46.20;;;;;;5038120;28;19909;-67
2023/06/24 01:47:08;;;;;;;;;;;26.90;46.20;;;;;;5038620;28;19951;-66
2023/06/24 01:49:37;;;;;;;;;;;26.90;46.20;;;;;;5039829;28;19905;-67
2023/06/24 01:52:04;;;;;;;;;;;26.90;46.20;;;;;;5038455;28;19916;-66
2023/06/24 01:54:30;;;;;;;;;;;26.90;46.20;;;;;;5036006;28;20003;-67
2023/06/24 01:56:57;;;;;;;;;;;26.90;46.20;;;;;;5041008;28;19999;-66
2023/06/24 01:59:23;;;;;;;;;;;26.90;46.20;;;;;;5036870;28;20300;-67
2023/06/24 02:01:51;;;;;;;;;;;26.90;46.20;;;;;;5039001;28;19905;-67
2023/06/24 02:04:17;;;;;;;;;;;26.90;46.20;;;;;;5038926;28;20254;-67
2023/06/24 02:06:43;;;;;;;;;;;26.90;46.30;;;;;;5037615;28;19909;-66
2023/06/24 02:09:10;;;;;;;;;;;26.90;46.20;;;;;;5036229;28;20012;-67
2023/06/24 02:11:36;;;;;;;;;;;26.90;46.20;;;;;;5038841;28;19913;-67
2023/06/24 02:14:03;;;;;;;;;;;26.90;46.20;;;;;;5038783;28;19905;-67
2023/06/24 02:16:29;;;;;;;;;;;26.90;46.20;;;;;;5038759;28;19920;-67
2023/06/24 02:18:55;;;;;;;;;;;26.90;46.20;;;;;;5037816;28;20351;-67
2023/06/24 02:21:22;;;;;;;;;;;26.90;46.30;;;;;;5037093;28;20415;-67
2023/06/24 02:23:48;;;;;;;;;;;26.90;46.30;;;;;;5040072;28;20379;-67
2023/06/24 02:26:15;;;;;;;;;;;26.80;46.20;;;;;;5035935;28;19916;-67
2023/06/24 02:28:41;;;;;;;;;;;26.80;46.20;;;;;;5039343;28;19915;-67
2023/06/24 02:31:08;;;;;;;;;;;26.90;46.30;;;;;;5034943;28;19970;-67
2023/06/24 02:33:34;;;;;;;;;;;26.80;46.20;;;;;;5038702;28;20317;-67
2023/06/24 02:35:59;;;;;;;;;;;26.80;46.20;;;;;;5043356;28;19912;-67
2023/06/24 02:38:24;;;;;;;;;;;26.90;46.30;;;;;;5042552;28;20299;-67
2023/06/24 02:40:50;;;;;;;;;;;26.80;46.20;;;;;;5040779;28;19991;-67
2023/06/24 02:43:17;;;;;;;;;;;26.80;46.20;;;;;;5041743;28;19908;-67
2023/06/24 02:45:42;;;;;;;;;;;26.80;46.80;;;;;;5041080;28;20039;-66
2023/06/24 02:48:08;;;;;;;;;;;26.80;46.20;;;;;;5039655;28;20403;-67
2023/06/24 02:50:35;;;;;;;;;;;26.80;46.20;;;;;;5041372;28;19908;-67
2023/06/24 02:53:01;;;;;;;;;;;26.80;46.20;;;;;;5038291;28;19912;-67
2023/06/24 02:55:27;;;;;;;;;;;26.80;46.30;;;;;;5042007;28;19954;-67
2023/06/24 02:57:53;;;;;;;;;;;26.80;46.30;;;;;;5041736;28;19912;-67
2023/06/24 03:00:19;;;;;;;;;;;26.80;46.30;;;;;;5041514;28;19905;-67
2023/06/24 03:02:45;;;;;;;;;;;26.80;46.30;;;;;;5039257;28;19920;-66
2023/06/24 03:05:10;;;;;;;;;;;26.80;46.30;;;;;;5039858;28;19905;-67
2023/06/24 03:07:37;;;;;;;;;;;26.80;46.30;;;;;;5041332;28;20103;-67
2023/06/24 03:10:02;;;;;;;;;;;26.80;46.30;;;;;;5038657;28;19916;-66
2023/06/24 03:12:28;;;;;;;;;;;26.80;46.30;;;;;;5042863;28;19909;-66
2023/06/24 03:14:54;;;;;;;;;;;26.80;46.30;;;;;;5040343;28;20368;-66
2023/06/24 03:17:20;;;;;;;;;;;26.80;46.30;;;;;;5042029;28;19999;-67
2023/06/24 03:19:45;;;;;;;;;;;26.80;46.30;;;;;;5039712;28;19913;-66
2023/06/24 03:22:11;;;;;;;;;;;26.80;46.30;;;;;;5042730;28;19909;-67
2023/06/24 03:24:36;;;;;;;;;;;26.80;46.40;;;;;;5039627;28;20372;-67
2023/06/24 03:27:02;;;;;;;;;;;26.80;46.30;;;;;;5043203;28;20023;-67
2023/06/24 03:29:28;;;;;;;;;;;26.80;46.40;;;;;;5039538;28;20357;-67
2023/06/24 03:31:53;;;;;;;;;;;26.80;46.30;;;;;;5041832;28;20364;-67
2023/06/24 03:34:19;;;;;;;;;;;26.80;46.40;;;;;;5040443;28;19917;-67
2023/06/24 03:36:44;;;;;;;;;;;26.80;46.40;;;;;;5041236;28;19958;-66
2023/06/24 03:39:10;;;;;;;;;;;26.70;46.30;;;;;;5041450;28;20230;-67
2023/06/24 03:41:35;;;;;;;;;;;26.70;46.30;;;;;;5037453;28;19905;-67
2023/06/24 03:44:01;;;;;;;;;;;26.70;46.30;;;;;;5035499;28;19908;-67
2023/06/24 03:46:32;;;;;;;;;;;26.70;46.30;;;;;;5040134;28;19939;-66
2023/06/24 03:48:58;;;;;;;;;;;26.70;46.30;;;;;;5039411;28;19909;-67
2023/06/24 03:51:24;;;;;;;;;;;26.70;46.40;;;;;;5039216;28;20079;-67
2023/06/24 03:53:50;;;;;;;;;;;26.70;46.30;;;;;;5038152;28;19915;-67
2023/06/24 03:56:15;;;;;;;;;;;26.70;46.40;;;;;;5039389;28;19927;-66
2023/06/24 03:58:41;;;;;;;;;;;26.70;46.40;;;;;;5040148;28;19913;-66
2023/06/24 04:01:06;;;;;;;;;;;26.70;46.40;;;;;;5041702;28;19916;-66
2023/06/24 04:03:32;;;;;;;;;;;26.70;46.40;;;;;;5040269;28;19905;-67
2023/06/24 04:05:58;;;;;;;;;;;26.70;46.40;;;;;;5041663;28;19916;-67
2023/06/24 04:08:25;;;;;;;;;;;26.70;46.40;;;;;;5041092;28;19913;-67
2023/06/24 04:10:50;;;;;;;;;;;26.70;46.40;;;;;;5037659;28;20337;-66
2023/06/24 04:13:16;;;;;;;;;;;26.70;46.40;;;;;;5038647;28;19996;-67
2023/06/24 04:15:41;;;;;;;;;;;26.70;46.40;;;;;;5040262;28;19963;-67
2023/06/24 04:18:07;;;;;;;;;;;26.70;46.40;;;;;;5040435;28;19908;-66
2023/06/24 04:20:34;;;;;;;;;;;26.70;46.40;;;;;;5039931;28;19908;-66
2023/06/24 04:23:00;;;;;;;;;;;26.70;46.40;;;;;;5040837;28;19913;-66
2023/06/24 04:25:25;;;;;;;;;;;26.70;46.40;;;;;;5037915;28;19917;-66
2023/06/24 04:27:51;;;;;;;;;;;26.70;46.40;;;;;;5039329;28;19955;-66
2023/06/24 04:30:17;;;;;;;;;;;26.70;46.40;;;;;;5039537;28;19905;-66
2023/06/24 04:32:42;;;;;;;;;;;26.70;46.40;;;;;;5038472;28;20275;-66
2023/06/24 04:35:08;;;;;;;;;;;26.70;46.50;;;;;;5039846;28;19904;-66
2023/06/24 04:37:33;;;;;;;;;;;26.70;46.40;;;;;;5040330;28;20317;-66
2023/06/24 04:39:59;;;;;;;;;;;26.70;46.40;;;;;;5037852;28;19913;-66
2023/06/24 04:42:25;;;;;;;;;;;26.70;46.40;;;;;;5042517;28;20014;-66
2023/06/24 04:44:51;;;;;;;;;;;26.70;46.50;;;;;;5045063;28;20628;-66
2023/06/24 04:47:19;;;;;;;;;;;26.60;46.40;;;;;;5041570;28;19911;-66
2023/06/24 04:49:45;;;;;;;;;;;26.60;46.40;;;;;;5047146;28;19913;-66
2023/06/24 04:52:11;;;;;;;;;;;26.60;46.40;;;;;;5039796;28;19909;-66
2023/06/24 04:54:37;;;;;;;;;;;26.60;46.40;;;;;;5037526;28;19916;-66
2023/06/24 04:57:02;;;;;;;;;;;26.60;46.40;;;;;;5040072;28;20055;-66
2023/06/24 04:59:28;;;;;;;;;;;26.60;46.40;;;;;;5040283;28;19913;-66
2023/06/24 05:01:53;;;;;;;;;;;26.60;46.50;;;;;;5039638;28;19927;-66
2023/06/24 05:04:20;;;;;;;;;;;26.60;46.40;;;;;;5041241;28;20352;-66
2023/06/24 05:06:45;;;;;;;;;;;26.60;46.40;;;;;;5035863;28;19912;-66
2023/06/24 05:09:13;;;;;;;;;;;26.60;46.50;;;;;;5037896;28;19959;-66
2023/06/24 05:11:39;;;;;;;;;;;26.60;46.40;;;;;;5037814;28;20533;-66
2023/06/24 05:14:05;;;;;;;;;;;26.60;46.50;;;;;;5039778;28;19991;-66
2023/06/24 05:16:30;;;;;;;;;;;26.60;46.50;;;;;;5038624;28;20284;-66
2023/06/24 05:18:56;;;;;;;;;;;26.60;46.50;;;;;;5039647;28;19952;-66
2023/06/24 05:21:21;;;;;;;;;;;26.50;46.40;;;;;;5039706;28;20379;-66
2023/06/24 05:23:47;;;;;;;;;;;26.60;46.50;;;;;;5039414;28;19905;-66
2023/06/24 05:26:12;;;;;;;;;;;26.60;46.50;;;;;;5037169;28;19931;-66
2023/06/24 05:28:38;;;;;;;;;;;26.60;46.50;;;;;;5040632;28;19958;-66
2023/06/24 05:31:03;;;;;;;;;;;26.60;46.50;;;;;;5037646;28;20008;-66
2023/06/24 05:33:29;;;;;;;;;;;26.60;46.50;;;;;;5038212;28;19967;-66
2023/06/24 05:35:54;;;;;;;;;;;26.60;46.50;;;;;;5039144;28;19951;-66
2023/06/24 05:38:20;;;;;;;;;;;26.60;46.50;;;;;;5035274;28;19963;-66
2023/06/24 05:40:45;;;;;;;;;;;26.60;46.50;;;;;;5044343;28;20333;-66
2023/06/24 05:43:11;;;;;;;;;;;26.60;46.50;;;;;;5036968;28;19905;-66
2023/06/24 05:45:36;;;;;;;;;;;26.50;46.40;;;;;;5038393;28;19916;-66
2023/06/24 05:48:02;;;;;;;;;;;26.50;46.40;;;;;;5036732;28;20388;-67
2023/06/24 05:50:28;;;;;;;;;;;26.50;46.40;;;;;;5037853;28;19956;-66
2023/06/24 05:52:53;;;;;;;;;;;26.50;46.40;;;;;;5039440;28;19947;-66
2023/06/24 05:55:19;;;;;;;;;;;26.50;46.40;;;;;;5037740;28;20296;-66
2023/06/24 05:57:44;;;;;;;;;;;26.50;46.40;;;;;;5038368;28;19920;-66
2023/06/24 06:00:10;;;;;;;;;;;26.50;46.50;;;;;;5036244;28;20012;-67
2023/06/24 06:02:36;;;;;;;;;;;26.50;46.40;;;;;;5035896;28;19908;-66
2023/06/24 06:05:01;;;;;;;;;;;26.50;46.40;;;;;;5036023;28;20035;-67
2023/06/24 06:07:27;;;;;;;;;;;26.50;46.50;;;;;;5042422;28;19904;-66
2023/06/24 06:09:52;;;;;;;;;;;26.50;46.40;;;;;;5045509;28;20097;-67
2023/06/24 06:12:18;;;;;;;;;;;26.50;46.50;;;;;;5038062;28;19912;-67
2023/06/24 06:14:43;;;;;;;;;;;26.50;46.50;;;;;;5042359;28;19960;-67
2023/06/24 06:17:09;;;;;;;;;;;26.50;46.50;;;;;;5040459;28;20003;-67
2023/06/24 06:19:34;;;;;;;;;;;26.50;46.50;;;;;;5040185;28;19924;-67
2023/06/24 06:22:00;;;;;;;;;;;26.50;46.50;;;;;;5040251;28;19909;-67
2023/06/24 06:24:25;;;;;;;;;;;26.50;46.50;;;;;;5042503;28;19913;-67
2023/06/24 06:26:51;;;;;;;;;;;26.50;46.40;;;;;;5040792;28;19909;-67
2023/06/24 06:29:16;;;;;;;;;;;26.50;46.50;;;;;;5038602;28;19905;-67
2023/06/24 06:31:42;;;;;;;;;;;26.50;46.50;;;;;;5043104;28;19909;-67
2023/06/24 06:34:08;;;;;;;;;;;26.50;46.50;;;;;;5041289;28;20023;-67
2023/06/24 06:36:34;;;;;;;;;;;26.50;46.50;;;;;;5042902;28;20213;-67
2023/06/24 06:38:59;;;;;;;;;;;26.50;46.50;;;;;;5039869;28;19982;-67
2023/06/24 06:41:25;;;;;;;;;;;26.50;46.50;;;;;;5041046;28;19909;-67
2023/06/24 06:43:51;;;;;;;;;;;26.50;46.50;;;;;;5043924;28;19991;-67
2023/06/24 06:46:16;;;;;;;;;;;26.50;46.50;;;;;;5041904;28;19915;-67
2023/06/24 06:48:42;;;;;;;;;;;26.50;46.50;;;;;;5043914;28;19905;-68
2023/06/24 06:51:07;;;;;;;;;;;26.50;46.50;;;;;;5041539;28;20358;-68
2023/06/24 06:53:33;;;;;;;;;;;26.50;46.50;;;;;;5040679;28;19955;-68
2023/06/24 06:55:58;;;;;;;;;;;26.40;46.50;;;;;;5039663;28;20461;-68
2023/06/24 06:58:24;;;;;;;;;;;26.50;46.50;;;;;;5040789;28;19917;-68
2023/06/24 07:00:50;;;;;;;;;;;26.50;46.50;;;;;;5040694;28;19909;-68
2023/06/24 07:03:15;;;;;;;;;;;26.40;46.40;;;;;;5042932;28;19912;-68
2023/06/24 07:05:41;;;;;;;;;;;26.50;46.60;;;;;;5041359;28;20378;-68
2023/06/24 07:08:06;;;;;;;;;;;26.40;46.50;;;;;;5040616;28;20011;-68
2023/06/24 07:10:32;;;;;;;;;;;26.40;46.50;;;;;;5040971;28;19905;-67
2023/06/24 07:12:58;;;;;;;;;;;26.40;46.50;;;;;;5040841;28;19904;-67
2023/06/24 07:15:26;;;;;;;;;;;26.40;46.40;;;;;;5041429;28;19936;-68
2023/06/24 07:17:52;;;;;;;;;;;26.40;47.00;;;;;;5040937;28;19909;-68
2023/06/24 07:20:18;;;;;;;;;;;26.40;46.50;;;;;;5041040;28;19913;-67
2023/06/24 07:22:43;;;;;;;;;;;26.40;46.50;;;;;;5041688;28;19904;-68
2023/06/24 07:25:09;;;;;;;;;;;26.40;46.50;;;;;;5043246;28;20356;-68
2023/06/24 07:27:35;;;;;;;;;;;26.40;46.50;;;;;;5039627;28;19962;-68
2023/06/24 07:30:00;;;;;;;;;;;26.40;46.50;;;;;;5041910;28;19905;-68
2023/06/24 07:32:26;;;;;;;;;;;26.40;46.50;;;;;;5040353;28;19919;-68
2023/06/24 07:34:51;;;;;;;;;;;26.40;46.40;;;;;;5043723;28;19908;-68
2023/06/24 07:37:17;;;;;;;;;;;26.40;46.50;;;;;;5040635;28;19916;-68
2023/06/24 07:39:43;;;;;;;;;;;26.40;46.50;;;;;;5042563;28;20253;-68
2023/06/24 07:42:08;;;;;;;;;;;26.40;46.50;;;;;;5039364;28;19987;-69
2023/06/24 07:44:36;;;;;;;;;;;26.40;46.40;;;;;;5039098;28;19982;-68
2023/06/24 07:47:02;;;;;;;;;;;26.40;46.50;;;;;;5040073;28;19913;-69
2023/06/24 07:49:27;;;;;;;;;;;26.40;46.50;;;;;;5042049;28;19931;-68
2023/06/24 07:51:53;;;;;;;;;;;26.40;46.50;;;;;;5041647;28;19905;-68
2023/06/24 07:54:18;;;;;;;;;;;26.40;46.50;;;;;;5040545;28;19959;-68
2023/06/24 07:56:44;;;;;;;;;;;26.40;46.50;;;;;;5041820;28;20415;-69
2023/06/24 07:59:10;;;;;;;;;;;26.40;46.50;;;;;;5039926;28;20043;-69
2023/06/24 08:01:35;;;;;;;;;;;26.40;46.50;;;;;;5041665;28;19919;-68
2023/06/24 08:04:01;;;;;;;;;;;26.40;46.50;;;;;;5041570;28;19944;-68
2023/06/24 08:06:27;;;;;;;;;;;26.40;46.50;;;;;;5041558;28;20376;-69
2023/06/24 08:08:52;;;;;;;;;;;26.40;46.50;;;;;;5039402;28;20012;-69
2023/06/24 08:11:18;;;;;;;;;;;26.40;46.50;;;;;;5038901;28;19999;-68
2023/06/24 08:13:43;;;;;;;;;;;26.40;46.50;;;;;;5039216;28;20315;-70
2023/06/24 08:16:08;;;;;;;;;;;26.40;46.50;;;;;;5043401;28;19911;-69
2023/06/24 08:18:34;;;;;;;;;;;26.40;46.50;;;;;;5041846;28;20443;-69
2023/06/24 08:20:59;;;;;;;;;;;26.40;46.40;;;;;;5039371;28;19916;-69
2023/06/24 08:23:25;;;;;;;;;;;26.40;46.50;;;;;;5045837;28;19962;-69
2023/06/24 08:25:51;;;;;;;;;;;26.40;46.50;;;;;;5039524;28;19947;-70
2023/06/24 08:28:16;;;;;;;;;;;26.40;46.50;;;;;;5041747;28;19905;-69
2023/06/24 08:30:42;;;;;;;;;;;26.40;46.50;;;;;;5040456;28;19920;-69
2023/06/24 08:33:07;;;;;;;;;;;26.40;46.40;;;;;;5043460;28;20328;-69
2023/06/24 08:35:33;;;;;;;;;;;26.40;46.40;;;;;;5039684;28;19939;-68
2023/06/24 08:37:58;;;;;;;;;;;26.40;46.50;;;;;;5040220;28;19916;-69
2023/06/24 08:40:23;;;;;;;;;;;26.40;46.50;;;;;;5039525;28;19905;-68
2023/06/24 08:42:54;;;;;;;;;;;26.40;46.50;;;;;;5038283;28;19944;-68
2023/06/24 08:45:20;;;;;;;;;;;26.50;46.50;;;;;;5040613;28;19959;-69
2023/06/24 08:47:47;;;;;;;;;;;26.50;46.30;;;;;;5042238;28;19958;-69
2023/06/24 08:50:13;;;;;;;;;;;26.50;46.40;;;;;;5041858;28;20332;-70
2023/06/24 08:52:41;;;;;;;;;;;26.50;46.30;;;;;;5041110;28;19962;-70
2023/06/24 08:55:10;;;;;;;;;;;26.50;46.30;;;;;;5039388;28;19963;-70
2023/06/24 08:57:36;;;;;;;;;;;26.50;46.30;;;;;;5038901;28;19913;-70
2023/06/24 09:00:03;;;;;;;;;;;26.40;46.20;;;;;;5041856;28;19919;-70
2023/06/24 09:02:30;;;;;;;;;;;26.50;46.40;;;;;;5040545;28;20593;-70
2023/06/24 09:04:55;;;;;;;;;;;26.50;46.30;;;;;;5040547;28;19955;-69
2023/06/24 09:07:30;;;;;;;;;;;26.50;46.30;;;;;;5039121;28;19990;-70
2023/06/24 09:09:56;;;;;;;;;;;26.50;46.30;;;;;;5039247;28;19988;-69
2023/06/24 09:12:21;;;;;;;;;;;26.50;46.40;;;;;;5038928;28;20487;-69
2023/06/24 09:14:50;;;;;;;;;;;26.50;46.40;;;;;;5041067;28;19948;-69
2023/06/24 09:17:16;;;;;;;;;;;26.50;46.40;;;;;;5038757;28;20440;-69
2023/06/24 09:19:42;;;;;;;;;;;26.50;46.40;;;;;;5040234;28;19999;-69
2023/06/24 09:22:08;;;;;;;;;;;26.50;46.40;;;;;;5037747;28;20306;-69
2023/06/24 09:24:34;;;;;;;;;;;26.50;46.40;;;;;;5037891;28;19909;-70
2023/06/24 09:27:01;;;;;;;;;;;26.50;46.40;;;;;;5037882;28;19916;-68
2023/06/24 09:29:28;;;;;;;;;;;26.50;46.40;;;;;;5037855;28;20361;-68
2023/06/24 09:31:55;;;;;;;;;;;26.50;46.40;;;;;;5038610;28;19909;-68
2023/06/24 09:34:21;;;;;;;;;;;26.60;46.40;;;;;;5035400;28;20365;-69
2023/06/24 09:36:54;;;;;;;;;;;26.60;46.30;;;;;;5037613;28;19905;-69
2023/06/24 09:39:28;;;;;;;;;;;26.60;46.30;;;;;;5038992;28;20320;-68
2023/06/24 09:41:54;;;;;;;;;;;26.60;46.20;;;;;;5041488;28;19916;-68
2023/06/24 09:44:20;;;;;;;;;;;26.70;46.20;;;;;;5047120;28;20403;-69
2023/06/24 09:46:46;;;;;;;;;;;26.70;46.20;;;;;;5046182;28;19912;-68
2023/06/24 09:49:11;;;;;;;;;;;26.70;46.20;;;;;;5045397;28;19908;-69
2023/06/24 09:51:42;;;;;;;;;;;26.70;46.20;;;;;;5045248;28;19983;-70
2023/06/24 09:54:09;;;;;;;;;;;26.70;46.30;;;;;;5045213;28;20442;-70
2023/06/24 09:56:36;;;;;;;;;;;26.70;46.20;;;;;;5045654;28;19916;-71
2023/06/24 09:59:03;;;;;;;;;;;26.70;46.30;;;;;;5043226;28;19932;-70
2023/06/24 10:01:29;;;;;;;;;;;26.70;47.00;;;;;;5045662;28;19909;-70
2023/06/24 10:03:55;;;;;;;;;;;26.70;46.40;;;;;;5045792;28;19915;-70
2023/06/24 10:06:20;;;;;;;;;;;26.80;46.40;;;;;;5045586;28;20288;-71
2023/06/24 10:08:46;;;;;;;;;;;26.80;46.40;;;;;;5043401;28;19971;-71
2023/06/24 10:11:12;;;;;;;;;;;26.70;46.40;;;;;;5049490;28;19909;-67
2023/06/24 10:13:37;;;;;;;;;;;26.80;46.50;;;;;;5045759;28;19917;-70
2023/06/24 10:16:03;;;;;;;;;;;26.70;46.40;;;;;;5046012;28;19959;-70
2023/06/24 10:18:36;;;;;;;;;;;26.70;46.40;;;;;;5045854;28;19912;-70
2023/06/24 10:21:02;;;;;;;;;;;26.70;46.40;;;;;;5046653;28;19944;-70
2023/06/24 10:23:54;;;;;;;;;;;26.70;46.40;;;;;;5048139;28;19915;-70
2023/06/24 10:26:28;;;;;;;;;;;26.70;46.40;;;;;;5039508;28;19908;-71
2023/06/24 10:29:05;;;;;;;;;;;26.80;46.50;;;;;;5045689;28;19915;-70
2023/06/24 10:31:40;;;;;;;;;;;26.70;46.40;;;;;;5045239;28;19911;-70
2023/06/24 10:34:26;;;;;;;;;;;26.80;46.50;;;;;;5044433;28;19920;-70
2023/06/24 10:36:59;;;;;;;;;;;26.80;47.00;;;;;;5030378;28;19919;-70
2023/06/24 10:39:43;;;;;;;;;;;26.70;46.40;;;;;;5044406;28;19909;-70
2023/06/24 10:42:35;;;;;;;;;;;26.70;46.40;;;;;;5044727;28;19909;-69
2023/06/24 10:45:02;;;;;;;;;;;26.80;46.60;;;;;;5045452;28;20372;-69
2023/06/24 10:47:29;;;;;;;;;;;26.80;46.50;;;;;;5046856;28;19954;-69
2023/06/24 10:49:54;;;;;;;;;;;26.70;46.40;;;;;;5044073;28;20368;-70
2023/06/24 10:52:21;;;;;;;;;;;26.80;46.50;;;;;;5042462;28;19951;-69
2023/06/24 10:54:47;;;;;;;;;;;26.80;46.50;;;;;;5041949;28;19912;-69
2023/06/24 10:57:12;;;;;;;;;;;26.70;46.40;;;;;;5040125;28;19905;-68
2023/06/24 10:59:41;;;;;;;;;;;26.80;46.60;;;;;;5041439;28;19954;-69
2023/06/24 11:02:08;;;;;;;;;;;26.80;46.60;;;;;;5041220;28;19916;-70
2023/06/24 11:04:33;;;;;;;;;;;26.90;46.60;;;;;;5040819;28;19948;-69
2023/06/24 11:06:59;;;;;;;;;;;26.90;46.50;;;;;;5040574;28;19940;-68
2023/06/24 11:09:25;;;;;;;;;;;26.90;46.40;;;;;;5041498;28;20396;-69
2023/06/24 11:11:50;;;;;;;;;;;27.00;46.40;;;;;;5042116;28;19909;-69
2023/06/24 11:14:16;;;;;;;;;;;27.00;46.30;;;;;;5040059;28;19909;-69
2023/06/24 11:16:42;;;;;;;;;;;27.00;46.30;;;;;;5043338;28;19904;-69
2023/06/24 11:19:08;;;;;;;;;;;27.10;46.30;;;;;;5042362;28;19939;-70
2023/06/24 11:21:33;;;;;;;;;;;27.10;46.20;;;;;;5038049;28;19905;-69
2023/06/24 11:24:02;;;;;;;;;;;27.10;46.20;;;;;;5040901;28;19920;-70
2023/06/24 11:26:28;;;;;;;;;;;27.10;46.20;;;;;;5040572;28;19909;-70
2023/06/24 11:28:54;;;;;;;;;;;27.20;46.20;;;;;;5041680;28;19916;-70
2023/06/24 11:31:23;;;;;;;;;;;27.20;46.10;;;;;;5038441;28;19908;-70
2023/06/24 11:33:49;;;;;;;;;;;27.20;46.00;;;;;;5040601;28;19924;-70
2023/06/24 11:36:18;;;;;;;;;;;27.20;46.20;;;;;;5038350;28;20364;-69
2023/06/24 11:38:45;;;;;;;;;;;27.20;46.30;;;;;;5039704;28;20436;-70
2023/06/24 11:41:10;;;;;;;;;;;27.30;46.30;;;;;;5038867;28;20467;-70
2023/06/24 11:43:36;;;;;;;;;;;27.30;46.20;;;;;;5039078;28;19911;-69
2023/06/24 11:46:01;;;;;;;;;;;27.30;46.20;;;;;;5041070;28;19915;-69
2023/06/24 11:48:28;;;;;;;;;;;27.40;46.10;;;;;;5041315;28;19909;-70
2023/06/24 11:50:54;;;;;;;;;;;27.40;46.10;;;;;;5053238;28;19948;-69
2023/06/24 11:53:49;;;;;;;;;;;27.40;46.10;;;;;;5039640;28;19909;-69
2023/06/24 11:56:15;;;;;;;;;;;27.40;46.10;;;;;;5032593;28;19909;-70
2023/06/24 11:58:43;;;;;;;;;;;27.50;46.00;;;;;;5038667;28;19909;-69
2023/06/24 12:01:08;;;;;;;;;;;27.40;45.90;;;;;;5038316;28;19925;-70
2023/06/24 12:03:34;;;;;;;;;;;27.50;46.00;;;;;;5037749;28;19905;-69
2023/06/24 12:06:00;;;;;;;;;;;27.50;46.10;;;;;;5039217;28;19909;-69
2023/06/24 12:08:25;;;;;;;;;;;27.60;46.30;;;;;;5038288;28;19908;-70
2023/06/24 12:10:51;;;;;;;;;;;27.60;46.20;;;;;;5041876;28;19909;-69
2023/06/24 12:13:17;;;;;;;;;;;27.60;46.00;;;;;;5038986;28;19971;-69
2023/06/24 12:15:43;;;;;;;;;;;27.60;46.10;;;;;;5041180;28;19909;-70
2023/06/24 12:18:08;;;;;;;;;;;27.60;45.90;;;;;;5039839;28;20008;-70
2023/06/24 12:20:37;;;;;;;;;;;27.60;45.90;;;;;;5039016;28;19934;-70
2023/06/24 12:23:05;;;;;;;;;;;27.60;45.90;;;;;;5039327;28;19948;-70
2023/06/24 12:25:31;;;;;;;;;;;27.60;45.90;;;;;;5039983;28;19943;-67
2023/06/24 12:27:59;;;;;;;;;;;27.60;45.90;;;;;;5037407;28;19968;-70
2023/06/24 12:30:24;;;;;;;;;;;27.50;45.90;;;;;;5040179;28;20384;-69
2023/06/24 12:32:50;;;;;;;;;;;27.50;46.00;;;;;;5040122;28;19967;-69
2023/06/24 12:35:16;;;;;;;;;;;27.50;46.00;;;;;;5039227;28;19913;-69
2023/06/24 12:37:41;;;;;;;;;;;27.50;46.00;;;;;;5040658;28;19967;-69
2023/06/24 12:40:07;;;;;;;;;;;27.50;46.10;;;;;;5041250;28;19912;-70
2023/06/24 12:42:32;;;;;;;;;;;27.50;46.10;;;;;;5040630;28;20009;-70
2023/06/24 12:44:58;;;;;;;;;;;27.50;46.10;;;;;;5044702;28;19948;-69
2023/06/24 12:47:24;;;;;;;;;;;27.50;46.20;;;;;;5039149;28;19906;-70
2023/06/24 12:49:50;;;;;;;;;;;27.50;46.20;;;;;;5041704;28;19908;-70
2023/06/24 12:52:15;;;;;;;;;;;27.50;46.20;;;;;;5041485;28;20435;-69
2023/06/24 12:54:41;;;;;;;;;;;27.50;46.30;;;;;;5038194;28;20028;-69
2023/06/24 12:57:06;;;;;;;;;;;27.50;46.20;;;;;;5041095;28;19909;-69
2023/06/24 12:59:32;;;;;;;;;;;27.50;46.30;;;;;;5038785;28;19959;-69
2023/06/24 13:01:58;;;;;;;;;;;27.50;46.30;;;;;;5039943;28;19943;-69
2023/06/24 13:04:24;;;;;;;;;;;27.50;45.70;;;;;;5038360;28;19909;-69
2023/06/24 13:06:50;;;;;;;;;;;27.50;45.50;;;;;;5039215;28;20003;-69
2023/06/24 13:09:16;;;;;;;;;;;27.40;45.40;;;;;;5041000;28;19920;-69
2023/06/24 13:11:42;;;;;;;;;;;27.50;45.30;;;;;;5038550;28;19909;-69
2023/06/24 13:14:09;;;;;;;;;;;27.50;44.50;;;;;;5037479;28;19912;-70
2023/06/24 13:16:35;;;;;;;;;;;27.50;43.70;;;;;;5038019;28;19992;-69
2023/06/24 13:19:01;;;;;;;;;;;27.50;43.20;;;;;;5037653;28;20435;-69
2023/06/24 13:21:27;;;;;;;;;;;27.50;42.80;;;;;;5039507;28;19909;-70
2023/06/24 13:23:52;;;;;;;;;;;27.40;43.10;;;;;;5040821;28;19920;-70
2023/06/24 13:26:18;;;;;;;;;;;27.40;43.20;;;;;;5039125;28;19944;-70
2023/06/24 13:28:43;;;;;;;;;;;27.40;43.10;;;;;;5039051;28;19913;-70
2023/06/24 13:31:09;;;;;;;;;;;27.40;43.10;;;;;;5037952;28;19912;-70
2023/06/24 13:33:34;;;;;;;;;;;27.40;42.80;;;;;;5038586;28;19920;-70
2023/06/24 13:36:00;;;;;;;;;;;27.40;42.80;;;;;;5039318;28;19962;-70
2023/06/24 13:38:25;;;;;;;;;;;27.40;42.80;;;;;;5039002;28;20027;-70
2023/06/24 13:40:51;;;;;;;;;;;27.40;43.30;;;;;;5038364;28;20309;-70
2023/06/24 13:43:17;;;;;;;;;;;27.40;42.50;;;;;;5040475;28;20419;-70
2023/06/24 13:45:42;;;;;;;;;;;27.40;42.60;;;;;;5034482;28;19992;-70
2023/06/24 13:48:08;;;;;;;;;;;27.40;42.80;;;;;;5038647;28;19905;-70
2023/06/24 13:50:33;;;;;;;;;;;27.40;43.10;;;;;;5035821;28;19959;-70
2023/06/24 13:52:59;;;;;;;;;;;27.40;42.90;;;;;;5038952;28;20727;-70
2023/06/24 13:55:25;;;;;;;;;;;27.40;42.10;;;;;;5039413;28;19909;-70
2023/06/24 13:57:50;;;;;;;;;;;27.40;41.70;;;;;;5038909;28;19905;-70
2023/06/24 14:00:16;;;;;;;;;;;27.30;41.50;;;;;;5037389;28;20256;-70
2023/06/24 14:02:41;;;;;;;;;;;27.30;41.30;;;;;;5035729;28;19909;-69
2023/06/24 14:05:07;;;;;;;;;;;27.30;41.50;;;;;;5039815;28;20376;-70
2023/06/24 14:07:33;;;;;;;;;;;27.30;41.50;;;;;;5039806;28;19905;-70
2023/06/24 14:09:58;;;;;;;;;;;27.30;41.20;;;;;;5038509;28;19912;-70
2023/06/24 14:12:24;;;;;;;;;;;27.30;41.20;;;;;;5039326;28;19908;-70